sensor_id;sensor_type;location;lat;lon;timestamp;pressure;altitude;pressure_sealevel;temperature;humidity
1736;BME280;865;53.672;10.250;2023-05-03T00:02:21;102388.59;;;4.04;100.00
1736;BME280;865;53.672;10.250;2023-05-03T00:04:51;102385.91;;;4.01;100.00
1736;BME280;865;53.672;10.250;2023-05-03T00:07:19;102389.22;;;3.97;100.00
1736;BME280;865;53.672;10.250;2023-05-03T00:09:45;102389.06;;;3.92;100.00
1736;BME280;865;53.672;10.250;2023-05-03T00:12:14;102388.19;;;3.92;100.00
1736;BME280;865;53.672;10.250;2023-05-03T00:14:41;102389.97;;;3.93;100.00
1736;BME280;865;53.672;10.250;2023-05-03T00:17:07;102388.94;;;3.89;100.00
1736;BME280;865;53.672;10.250;2023-05-03T00:19:34;102394.00;;;3.86;100.00
1736;BME280;865;53.672;10.250;2023-05-03T00:22:02;102388.03;;;3.87;100.00
1736;BME280;865;53.672;10.250;2023-05-03T00:24:28;102381.06;;;3.84;100.00
1736;BME280;865;53.672;10.250;2023-05-03T00:26:55;102380.09;;;3.81;100.00
1736;BME280;865;53.672;10.250;2023-05-03T00:29:21;102386.81;;;3.77;100.00
1736;BME280;865;53.672;10.250;2023-05-03T00:31:48;102384.91;;;3.72;100.00
1736;BME280;865;53.672;10.250;2023-05-03T00:34:14;102389.97;;;3.69;100.00
1736;BME280;865;53.672;10.250;2023-05-03T00:36:41;102387.28;;;3.65;100.00
1736;BME280;865;53.672;10.250;2023-05-03T00:39:07;102384.59;;;3.62;100.00
1736;BME280;865;53.672;10.250;2023-05-03T00:41:34;102392.28;;;3.61;100.00
1736;BME280;865;53.672;10.250;2023-05-03T00:44:01;102389.53;;;3.56;100.00
1736;BME280;865;53.672;10.250;2023-05-03T00:46:27;102392.84;;;3.52;100.00
1736;BME280;865;53.672;10.250;2023-05-03T00:48:54;102396.41;;;3.56;100.00
1736;BME280;865;53.672;10.250;2023-05-03T00:51:21;102390.28;;;3.54;100.00
1736;BME280;865;53.672;10.250;2023-05-03T00:53:47;102396.25;;;3.51;100.00
1736;BME280;865;53.672;10.250;2023-05-03T00:56:18;102391.97;;;3.52;100.00
1736;BME280;865;53.672;10.250;2023-05-03T00:58:51;102390.19;;;3.51;100.00
1736;BME280;865;53.672;10.250;2023-05-03T01:01:17;102395.88;;;3.42;100.00
1736;BME280;865;53.672;10.250;2023-05-03T01:03:44;102388.22;;;3.43;100.00
1736;BME280;865;53.672;10.250;2023-05-03T01:06:31;102390.03;;;3.46;100.00
1736;BME280;865;53.672;10.250;2023-05-03T01:09:25;102398.53;;;3.43;100.00
1736;BME280;865;53.672;10.250;2023-05-03T01:14:44;102397.34;;;3.34;100.00
1736;BME280;865;53.672;10.250;2023-05-03T01:17:13;102399.50;;;3.23;100.00
1736;BME280;865;53.672;10.250;2023-05-03T01:19:50;102404.63;;;3.22;100.00
1736;BME280;865;53.672;10.250;2023-05-03T01:25:11;102409.66;;;3.18;100.00
1736;BME280;865;53.672;10.250;2023-05-03T01:27:39;102416.47;;;3.16;100.00
1736;BME280;865;53.672;10.250;2023-05-03T01:30:08;102419.03;;;3.16;100.00
1736;BME280;865;53.672;10.250;2023-05-03T01:35:28;102421.53;;;3.15;100.00
1736;BME280;865;53.672;10.250;2023-05-03T01:37:56;102426.00;;;3.19;100.00
1736;BME280;865;53.672;10.250;2023-05-03T01:40:24;102426.69;;;3.15;100.00
1736;BME280;865;53.672;10.250;2023-05-03T01:42:54;102425.94;;;3.17;100.00
1736;BME280;865;53.672;10.250;2023-05-03T01:45:21;102426.06;;;3.20;100.00
1736;BME280;865;53.672;10.250;2023-05-03T01:47:47;102427.03;;;3.24;100.00
1736;BME280;865;53.672;10.250;2023-05-03T01:50:14;102428.94;;;3.28;100.00
1736;BME280;865;53.672;10.250;2023-05-03T01:52:40;102430.00;;;3.33;100.00
1736;BME280;865;53.672;10.250;2023-05-03T01:55:07;102424.88;;;3.35;100.00
1736;BME280;865;53.672;10.250;2023-05-03T01:57:33;102424.25;;;3.42;100.00
1736;BME280;865;53.672;10.250;2023-05-03T01:59:59;102424.41;;;3.45;100.00
1736;BME280;865;53.672;10.250;2023-05-03T02:02:26;102425.31;;;3.47;100.00
1736;BME280;865;53.672;10.250;2023-05-03T02:04:53;102426.31;;;3.51;100.00
1736;BME280;865;53.672;10.250;2023-05-03T02:07:20;102422.84;;;3.50;100.00
1736;BME280;865;53.672;10.250;2023-05-03T02:09:46;102420.28;;;3.50;100.00
1736;BME280;865;53.672;10.250;2023-05-03T02:12:13;102425.72;;;3.58;100.00
1736;BME280;865;53.672;10.250;2023-05-03T02:14:39;102429.25;;;3.60;100.00
1736;BME280;865;53.672;10.250;2023-05-03T02:17:06;102430.06;;;3.59;100.00
1736;BME280;865;53.672;10.250;2023-05-03T02:19:33;102428.31;;;3.58;100.00
1736;BME280;865;53.672;10.250;2023-05-03T02:22:00;102433.34;;;3.55;100.00
1736;BME280;865;53.672;10.250;2023-05-03T02:24:26;102434.00;;;3.49;100.00
1736;BME280;865;53.672;10.250;2023-05-03T02:26:54;102440.81;;;3.47;100.00
1736;BME280;865;53.672;10.250;2023-05-03T02:29:21;102432.78;;;3.39;100.00
1736;BME280;865;53.672;10.250;2023-05-03T02:31:47;102437.63;;;3.30;100.00
1736;BME280;865;53.672;10.250;2023-05-03T02:34:13;102442.97;;;3.12;100.00
1736;BME280;865;53.672;10.250;2023-05-03T02:36:40;102450.53;;;3.09;100.00
1736;BME280;865;53.672;10.250;2023-05-03T02:39:06;102447.06;;;3.07;100.00
1736;BME280;865;53.672;10.250;2023-05-03T02:41:32;102447.06;;;3.07;100.00
1736;BME280;865;53.672;10.250;2023-05-03T02:43:59;102452.13;;;3.06;100.00
1736;BME280;865;53.672;10.250;2023-05-03T02:46:26;102454.03;;;3.10;100.00
1736;BME280;865;53.672;10.250;2023-05-03T02:48:52;102451.69;;;3.16;100.00
1736;BME280;865;53.672;10.250;2023-05-03T02:51:18;102454.25;;;3.16;100.00
1736;BME280;865;53.672;10.250;2023-05-03T02:53:45;102455.13;;;3.16;100.00
1736;BME280;865;53.672;10.250;2023-05-03T02:56:12;102458.59;;;3.17;100.00
1736;BME280;865;53.672;10.250;2023-05-03T02:58:38;102464.81;;;3.22;100.00
1736;BME280;865;53.672;10.250;2023-05-03T03:01:05;102452.97;;;3.27;100.00
1736;BME280;865;53.672;10.250;2023-05-03T03:03:31;102462.09;;;3.41;100.00
1736;BME280;865;53.672;10.250;2023-05-03T03:05:58;102457.25;;;3.51;100.00
1736;BME280;865;53.672;10.250;2023-05-03T03:08:24;102455.81;;;3.57;100.00
1736;BME280;865;53.672;10.250;2023-05-03T03:10:51;102456.84;;;3.62;100.00
1736;BME280;865;53.672;10.250;2023-05-03T03:13:17;102456.38;;;3.73;100.00
1736;BME280;865;53.672;10.250;2023-05-03T03:15:43;102454.03;;;3.80;100.00
1736;BME280;865;53.672;10.250;2023-05-03T03:18:10;102457.56;;;3.82;100.00
1736;BME280;865;53.672;10.250;2023-05-03T03:20:37;102454.22;;;3.85;100.00
1736;BME280;865;53.672;10.250;2023-05-03T03:23:03;102458.50;;;3.84;100.00
1736;BME280;865;53.672;10.250;2023-05-03T03:25:29;102457.78;;;3.88;100.00
1736;BME280;865;53.672;10.250;2023-05-03T03:27:56;102457.22;;;3.97;100.00
1736;BME280;865;53.672;10.250;2023-05-03T03:30:22;102459.06;;;4.01;100.00
1736;BME280;865;53.672;10.250;2023-05-03T03:32:48;102459.25;;;4.06;100.00
1736;BME280;865;53.672;10.250;2023-05-03T03:35:15;102459.47;;;4.12;100.00
1736;BME280;865;53.672;10.250;2023-05-03T03:37:42;102464.69;;;4.14;100.00
1736;BME280;865;53.672;10.250;2023-05-03T03:40:08;102458.59;;;4.11;100.00
1736;BME280;865;53.672;10.250;2023-05-03T03:42:36;102462.13;;;4.14;100.00
1736;BME280;865;53.672;10.250;2023-05-03T03:45:02;102465.47;;;4.11;100.00
1736;BME280;865;53.672;10.250;2023-05-03T03:47:29;102465.28;;;4.06;100.00
1736;BME280;865;53.672;10.250;2023-05-03T03:49:56;102460.22;;;4.09;100.00
1736;BME280;865;53.672;10.250;2023-05-03T03:52:22;102460.19;;;4.08;100.00
1736;BME280;865;53.672;10.250;2023-05-03T03:54:49;102463.75;;;4.11;100.00
1736;BME280;865;53.672;10.250;2023-05-03T03:57:15;102462.78;;;4.08;100.00
1736;BME280;865;53.672;10.250;2023-05-03T03:59:42;102457.72;;;4.11;100.00
1736;BME280;865;53.672;10.250;2023-05-03T04:02:08;102463.75;;;4.11;100.00
1736;BME280;865;53.672;10.250;2023-05-03T04:04:35;102454.25;;;4.10;100.00
1736;BME280;865;53.672;10.250;2023-05-03T04:07:01;102461.94;;;4.09;100.00
1736;BME280;865;53.672;10.250;2023-05-03T04:09:28;102453.34;;;4.10;100.00
1736;BME280;865;53.672;10.250;2023-05-03T04:11:54;102455.28;;;4.16;100.00
1736;BME280;865;53.672;10.250;2023-05-03T04:14:21;102459.88;;;4.24;100.00
1736;BME280;865;53.672;10.250;2023-05-03T04:16:47;102459.31;;;4.33;100.00
1736;BME280;865;53.672;10.250;2023-05-03T04:19:13;102455.19;;;4.38;100.00
1736;BME280;865;53.672;10.250;2023-05-03T04:21:40;102449.94;;;4.37;100.00
1736;BME280;865;53.672;10.250;2023-05-03T04:24:06;102453.69;;;4.45;100.00
1736;BME280;865;53.672;10.250;2023-05-03T04:26:33;102457.97;;;4.44;100.00
1736;BME280;865;53.672;10.250;2023-05-03T04:29:00;102449.75;;;4.56;100.00
1736;BME280;865;53.672;10.250;2023-05-03T04:31:26;102455.44;;;4.73;100.00
1736;BME280;865;53.672;10.250;2023-05-03T04:33:53;102459.22;;;4.83;100.00
1736;BME280;865;53.672;10.250;2023-05-03T04:36:19;102462.56;;;4.80;100.00
1736;BME280;865;53.672;10.250;2023-05-03T04:38:51;102463.16;;;4.71;100.00
1736;BME280;865;53.672;10.250;2023-05-03T04:41:17;102458.56;;;4.63;100.00
1736;BME280;865;53.672;10.250;2023-05-03T04:43:43;102461.31;;;4.67;100.00
1736;BME280;865;53.672;10.250;2023-05-03T04:46:10;102467.78;;;4.82;100.00
1736;BME280;865;53.672;10.250;2023-05-03T04:48:36;102472.19;;;4.84;100.00
1736;BME280;865;53.672;10.250;2023-05-03T04:51:03;102470.97;;;5.00;100.00
1736;BME280;865;53.672;10.250;2023-05-03T04:53:29;102480.56;;;5.04;100.00
1736;BME280;865;53.672;10.250;2023-05-03T04:55:56;102479.31;;;5.20;100.00
1736;BME280;865;53.672;10.250;2023-05-03T04:58:22;102483.69;;;5.21;100.00
1736;BME280;865;53.672;10.250;2023-05-03T05:00:49;102478.41;;;5.18;100.00
1736;BME280;865;53.672;10.250;2023-05-03T05:03:15;102481.31;;;5.29;100.00
1736;BME280;865;53.672;10.250;2023-05-03T05:05:42;102480.00;;;5.41;100.00
1736;BME280;865;53.672;10.250;2023-05-03T05:08:08;102488.56;;;5.40;100.00
1736;BME280;865;53.672;10.250;2023-05-03T05:10:40;102490.88;;;5.60;100.00
1736;BME280;865;53.672;10.250;2023-05-03T05:13:06;102487.09;;;5.48;100.00
1736;BME280;865;53.672;10.250;2023-05-03T05:15:33;102486.22;;;5.48;100.00
1736;BME280;865;53.672;10.250;2023-05-03T05:17:59;102485.00;;;5.37;100.00
1736;BME280;865;53.672;10.250;2023-05-03T05:20:26;102484.66;;;5.55;100.00
1736;BME280;865;53.672;10.250;2023-05-03T05:22:52;102492.59;;;5.91;100.00
1736;BME280;865;53.672;10.250;2023-05-03T05:25:19;102479.53;;;6.16;100.00
1736;BME280;865;53.672;10.250;2023-05-03T05:27:45;102483.59;;;6.40;100.00
1736;BME280;865;53.672;10.250;2023-05-03T05:30:12;102489.25;;;6.25;100.00
1736;BME280;865;53.672;10.250;2023-05-03T05:32:39;102492.97;;;6.03;100.00
1736;BME280;865;53.672;10.250;2023-05-03T05:35:05;102491.22;;;6.02;100.00
1736;BME280;865;53.672;10.250;2023-05-03T05:37:32;102498.69;;;6.23;100.00
1736;BME280;865;53.672;10.250;2023-05-03T05:39:58;102498.16;;;6.35;100.00
1736;BME280;865;53.672;10.250;2023-05-03T05:42:24;102497.78;;;6.21;100.00
1736;BME280;865;53.672;10.250;2023-05-03T05:44:51;102498.34;;;6.43;100.00
1736;BME280;865;53.672;10.250;2023-05-03T05:47:18;102496.00;;;6.53;100.00
1736;BME280;865;53.672;10.250;2023-05-03T05:49:44;102496.53;;;6.75;100.00
1736;BME280;865;53.672;10.250;2023-05-03T05:52:10;102497.59;;;6.81;100.00
1736;BME280;865;53.672;10.250;2023-05-03T05:54:37;102494.72;;;7.07;100.00
1736;BME280;865;53.672;10.250;2023-05-03T05:57:03;102490.56;;;6.77;100.00
1736;BME280;865;53.672;10.250;2023-05-03T05:59:29;102492.13;;;7.07;100.00
1736;BME280;865;53.672;10.250;2023-05-03T06:01:56;102491.28;;;7.08;100.00
1736;BME280;865;53.672;10.250;2023-05-03T06:04:25;102489.53;;;7.07;100.00
1736;BME280;865;53.672;10.250;2023-05-03T06:06:52;102488.91;;;7.19;100.00
1736;BME280;865;53.672;10.250;2023-05-03T06:09:18;102492.56;;;7.27;100.00
1736;BME280;865;53.672;10.250;2023-05-03T06:11:50;102496.16;;;6.96;100.00
1736;BME280;865;53.672;10.250;2023-05-03T06:14:17;102492.44;;;7.21;100.00
1736;BME280;865;53.672;10.250;2023-05-03T06:16:45;102496.88;;;7.66;100.00
1736;BME280;865;53.672;10.250;2023-05-03T06:19:12;102487.75;;;7.86;100.00
1736;BME280;865;53.672;10.250;2023-05-03T06:21:38;102490.69;;;8.03;100.00
1736;BME280;865;53.672;10.250;2023-05-03T06:24:05;102494.97;;;8.03;100.00
1736;BME280;865;53.672;10.250;2023-05-03T06:26:31;102492.47;;;7.63;100.00
1736;BME280;865;53.672;10.250;2023-05-03T06:28:57;102502.81;;;7.60;100.00
1736;BME280;865;53.672;10.250;2023-05-03T06:31:25;102500.50;;;7.75;100.00
1736;BME280;865;53.672;10.250;2023-05-03T06:33:52;102494.16;;;8.05;100.00
1736;BME280;865;53.672;10.250;2023-05-03T06:36:18;102499.03;;;7.87;100.00
1736;BME280;865;53.672;10.250;2023-05-03T06:38:45;102502.28;;;7.76;100.00
1736;BME280;865;53.672;10.250;2023-05-03T06:41:11;102502.72;;;7.98;100.00
1736;BME280;865;53.672;10.250;2023-05-03T06:43:38;102500.81;;;7.91;100.00
1736;BME280;865;53.672;10.250;2023-05-03T06:46:04;102497.50;;;7.98;100.00
1736;BME280;865;53.672;10.250;2023-05-03T06:48:30;102502.25;;;8.19;100.00
1736;BME280;865;53.672;10.250;2023-05-03T06:50:57;102507.56;;;7.81;100.00
1736;BME280;865;53.672;10.250;2023-05-03T06:53:23;102507.09;;;8.01;100.00
1736;BME280;865;53.672;10.250;2023-05-03T06:55:49;102509.41;;;7.85;100.00
1736;BME280;865;53.672;10.250;2023-05-03T06:58:16;102501.38;;;7.74;100.00
1736;BME280;865;53.672;10.250;2023-05-03T07:00:42;102501.25;;;7.68;100.00
1736;BME280;865;53.672;10.250;2023-05-03T07:03:09;102508.38;;;7.79;100.00
1736;BME280;865;53.672;10.250;2023-05-03T07:05:36;102500.47;;;7.72;100.00
1736;BME280;865;53.672;10.250;2023-05-03T07:08:02;102502.47;;;7.45;100.00
1736;BME280;865;53.672;10.250;2023-05-03T07:10:29;102503.19;;;7.79;100.00
1736;BME280;865;53.672;10.250;2023-05-03T07:12:56;102513.66;;;8.27;100.00
1736;BME280;865;53.672;10.250;2023-05-03T07:15:23;102510.00;;;8.17;100.00
1736;BME280;865;53.672;10.250;2023-05-03T07:17:49;102510.91;;;7.74;100.00
1736;BME280;865;53.672;10.250;2023-05-03T07:20:15;102507.97;;;7.59;100.00
1736;BME280;865;53.672;10.250;2023-05-03T07:22:42;102510.59;;;7.60;100.00
1736;BME280;865;53.672;10.250;2023-05-03T07:25:09;102513.94;;;7.54;100.00
1736;BME280;865;53.672;10.250;2023-05-03T07:27:37;102517.44;;;7.57;100.00
1736;BME280;865;53.672;10.250;2023-05-03T07:30:04;102513.19;;;7.60;100.00
1736;BME280;865;53.672;10.250;2023-05-03T07:32:31;102513.63;;;7.80;100.00
1736;BME280;865;53.672;10.250;2023-05-03T07:34:57;102512.81;;;8.28;100.00
1736;BME280;865;53.672;10.250;2023-05-03T07:37:24;102513.78;;;8.33;100.00
1736;BME280;865;53.672;10.250;2023-05-03T07:39:52;102516.28;;;8.29;100.00
1736;BME280;865;53.672;10.250;2023-05-03T07:42:18;102506.94;;;7.93;100.00
1736;BME280;865;53.672;10.250;2023-05-03T07:44:45;102510.66;;;7.63;100.00
1736;BME280;865;53.672;10.250;2023-05-03T07:47:11;102510.16;;;7.80;100.00
1736;BME280;865;53.672;10.250;2023-05-03T07:49:38;102504.44;;;7.99;100.00
1736;BME280;865;53.672;10.250;2023-05-03T07:52:04;102510.22;;;7.83;100.00
1736;BME280;865;53.672;10.250;2023-05-03T07:54:30;102514.38;;;7.76;100.00
1736;BME280;865;53.672;10.250;2023-05-03T07:56:57;102509.22;;;7.78;100.00
1736;BME280;865;53.672;10.250;2023-05-03T07:59:24;102509.25;;;7.79;100.00
1736;BME280;865;53.672;10.250;2023-05-03T08:01:50;102519.44;;;7.70;100.00
1736;BME280;865;53.672;10.250;2023-05-03T08:04:16;102513.94;;;7.97;100.00
1736;BME280;865;53.672;10.250;2023-05-03T08:06:43;102514.72;;;7.93;100.00
1736;BME280;865;53.672;10.250;2023-05-03T08:09:10;102516.22;;;8.24;100.00
1736;BME280;865;53.672;10.250;2023-05-03T08:11:36;102516.06;;;8.16;100.00
1736;BME280;865;53.672;10.250;2023-05-03T08:14:03;102523.88;;;8.63;100.00
1736;BME280;865;53.672;10.250;2023-05-03T08:16:29;102514.13;;;8.52;100.00
1736;BME280;865;53.672;10.250;2023-05-03T08:18:56;102522.34;;;8.75;100.00
1736;BME280;865;53.672;10.250;2023-05-03T08:21:22;102526.03;;;8.39;100.00
1736;BME280;865;53.672;10.250;2023-05-03T08:23:50;102520.09;;;8.48;100.00
1736;BME280;865;53.672;10.250;2023-05-03T08:26:16;102516.72;;;9.05;100.00
1736;BME280;865;53.672;10.250;2023-05-03T08:28:43;102515.00;;;9.05;100.00
1736;BME280;865;53.672;10.250;2023-05-03T08:31:09;102531.34;;;8.97;100.00
1736;BME280;865;53.672;10.250;2023-05-03T08:33:35;102525.50;;;8.57;100.00
1736;BME280;865;53.672;10.250;2023-05-03T08:36:02;102523.56;;;8.47;100.00
1736;BME280;865;53.672;10.250;2023-05-03T08:38:28;102516.63;;;8.47;100.00
1736;BME280;865;53.672;10.250;2023-05-03T08:40:57;102518.31;;;8.42;100.00
1736;BME280;865;53.672;10.250;2023-05-03T08:43:26;102528.66;;;8.39;100.00
1736;BME280;865;53.672;10.250;2023-05-03T08:45:53;102528.66;;;8.39;100.00
1736;BME280;865;53.672;10.250;2023-05-03T08:48:19;102528.41;;;8.30;100.00
1736;BME280;865;53.672;10.250;2023-05-03T08:50:48;102525.59;;;8.64;100.00
1736;BME280;865;53.672;10.250;2023-05-03T08:53:16;102524.53;;;8.52;100.00
1736;BME280;865;53.672;10.250;2023-05-03T08:55:43;102533.56;;;8.27;100.00
1736;BME280;865;53.672;10.250;2023-05-03T08:58:09;102527.59;;;8.32;100.00
1736;BME280;865;53.672;10.250;2023-05-03T09:00:37;102534.06;;;8.51;100.00
1736;BME280;865;53.672;10.250;2023-05-03T09:03:04;102539.78;;;8.82;100.00
1736;BME280;865;53.672;10.250;2023-05-03T09:05:34;102537.41;;;8.97;100.00
1736;BME280;865;53.672;10.250;2023-05-03T09:08:02;102540.22;;;9.09;100.00
1736;BME280;865;53.672;10.250;2023-05-03T09:10:29;102542.84;;;9.11;100.00
1736;BME280;865;53.672;10.250;2023-05-03T09:13:00;102536.97;;;9.23;100.00
1736;BME280;865;53.672;10.250;2023-05-03T09:15:28;102532.78;;;9.35;100.00
1736;BME280;865;53.672;10.250;2023-05-03T09:18:16;102534.63;;;9.41;100.00
1736;BME280;865;53.672;10.250;2023-05-03T09:20:44;102531.44;;;9.01;100.00
1736;BME280;865;53.672;10.250;2023-05-03T09:25:50;102541.09;;;9.10;100.00
1736;BME280;865;53.672;10.250;2023-05-03T09:28:18;102543.09;;;9.28;100.00
1736;BME280;865;53.672;10.250;2023-05-03T09:30:46;102551.53;;;9.11;100.00
1736;BME280;865;53.672;10.250;2023-05-03T09:33:13;102559.47;;;8.67;100.00
1736;BME280;865;53.672;10.250;2023-05-03T09:35:58;102559.97;;;8.45;100.00
1736;BME280;865;53.672;10.250;2023-05-03T09:38:32;102558.47;;;8.59;100.00
1736;BME280;865;53.672;10.250;2023-05-03T09:40:59;102555.69;;;9.00;100.00
1736;BME280;865;53.672;10.250;2023-05-03T09:43:26;102556.66;;;9.05;100.00
1736;BME280;865;53.672;10.250;2023-05-03T09:46:07;102550.97;;;8.76;100.00
1736;BME280;865;53.672;10.250;2023-05-03T09:48:35;102552.63;;;8.73;100.00
1736;BME280;865;53.672;10.250;2023-05-03T09:51:02;102537.41;;;8.96;100.00
1736;BME280;865;53.672;10.250;2023-05-03T09:53:34;102531.84;;;9.29;100.00
1736;BME280;865;53.672;10.250;2023-05-03T09:56:02;102525.75;;;9.30;100.00
1736;BME280;865;53.672;10.250;2023-05-03T09:58:29;102526.38;;;9.74;100.00
1736;BME280;865;53.672;10.250;2023-05-03T10:01:00;102526.41;;;9.76;100.00
1736;BME280;865;53.672;10.250;2023-05-03T10:03:47;102521.38;;;9.93;100.00
1736;BME280;865;53.672;10.250;2023-05-03T10:06:22;102518.81;;;9.99;100.00
1736;BME280;865;53.672;10.250;2023-05-03T10:09:11;102518.06;;;10.08;100.00
1736;BME280;865;53.672;10.250;2023-05-03T10:11:51;102519.84;;;10.12;100.00
1736;BME280;865;53.672;10.250;2023-05-03T10:14:19;102520.47;;;9.89;100.00
1736;BME280;865;53.672;10.250;2023-05-03T10:16:48;102522.22;;;9.93;100.00
1736;BME280;865;53.672;10.250;2023-05-03T10:19:32;102519.34;;;9.67;100.00
1736;BME280;865;53.672;10.250;2023-05-03T10:22:03;102527.00;;;10.26;100.00
1736;BME280;865;53.672;10.250;2023-05-03T10:24:35;102519.00;;;10.13;97.66
1736;BME280;865;53.672;10.250;2023-05-03T10:27:05;102510.69;;;10.49;99.76
1736;BME280;865;53.672;10.250;2023-05-03T10:32:01;102504.75;;;9.83;100.00
1736;BME280;865;53.672;10.250;2023-05-03T10:37:00;102509.06;;;9.81;100.00
1736;BME280;865;53.672;10.250;2023-05-03T10:39:29;102515.22;;;9.86;100.00
1736;BME280;865;53.672;10.250;2023-05-03T10:42:02;102511.47;;;9.66;100.00
1736;BME280;865;53.672;10.250;2023-05-03T10:47:19;102504.34;;;10.25;100.00
1736;BME280;865;53.672;10.250;2023-05-03T10:55:09;102506.38;;;9.73;100.00
1736;BME280;865;53.672;10.250;2023-05-03T10:57:39;102508.88;;;9.64;100.00
1736;BME280;865;53.672;10.250;2023-05-03T11:00:11;102501.13;;;9.72;100.00
1736;BME280;865;53.672;10.250;2023-05-03T11:02:46;102497.81;;;9.82;100.00
1736;BME280;865;53.672;10.250;2023-05-03T11:05:22;102494.94;;;10.38;100.00
1736;BME280;865;53.672;10.250;2023-05-03T11:07:50;102493.00;;;10.22;100.00
1736;BME280;865;53.672;10.250;2023-05-03T11:10:17;102506.91;;;10.22;100.00
1736;BME280;865;53.672;10.250;2023-05-03T11:12:44;102494.44;;;9.92;100.00
1736;BME280;865;53.672;10.250;2023-05-03T11:15:10;102493.34;;;9.75;100.00
1736;BME280;865;53.672;10.250;2023-05-03T11:17:37;102492.03;;;10.14;100.00
1736;BME280;865;53.672;10.250;2023-05-03T11:20:07;102490.84;;;10.66;100.00
1736;BME280;865;53.672;10.250;2023-05-03T11:22:34;102497.84;;;10.77;100.00
1736;BME280;865;53.672;10.250;2023-05-03T11:25:01;102500.47;;;10.75;100.00
1736;BME280;865;53.672;10.250;2023-05-03T11:27:28;102498.75;;;10.74;100.00
1736;BME280;865;53.672;10.250;2023-05-03T11:29:54;102500.13;;;10.32;100.00
1736;BME280;865;53.672;10.250;2023-05-03T11:32:27;102500.72;;;10.10;100.00
1736;BME280;865;53.672;10.250;2023-05-03T11:34:55;102487.22;;;10.47;100.00
1736;BME280;865;53.672;10.250;2023-05-03T11:37:25;102481.56;;;11.07;100.00
1736;BME280;865;53.672;10.250;2023-05-03T11:39:52;102482.63;;;11.39;100.00
1736;BME280;865;53.672;10.250;2023-05-03T11:42:18;102480.13;;;11.70;93.87
1736;BME280;865;53.672;10.250;2023-05-03T11:44:45;102481.84;;;11.68;96.52
1736;BME280;865;53.672;10.250;2023-05-03T11:47:11;102482.78;;;11.79;92.99
1736;BME280;865;53.672;10.250;2023-05-03T11:49:38;102487.03;;;11.53;88.31
1736;BME280;865;53.672;10.250;2023-05-03T11:52:04;102475.75;;;11.64;98.93
1736;BME280;865;53.672;10.250;2023-05-03T11:54:31;102481.09;;;11.89;100.00
1736;BME280;865;53.672;10.250;2023-05-03T11:56:57;102488.84;;;11.72;100.00
1736;BME280;865;53.672;10.250;2023-05-03T11:59:38;102487.94;;;11.61;100.00
1736;BME280;865;53.672;10.250;2023-05-03T12:02:06;102481.75;;;11.40;100.00
1736;BME280;865;53.672;10.250;2023-05-03T12:04:36;102478.25;;;11.41;100.00
1736;BME280;865;53.672;10.250;2023-05-03T12:07:10;102479.28;;;11.76;100.00
1736;BME280;865;53.672;10.250;2023-05-03T12:09:39;102480.81;;;11.25;94.76
1736;BME280;865;53.672;10.250;2023-05-03T12:12:07;102465.25;;;11.55;100.00
1736;BME280;865;53.672;10.250;2023-05-03T12:14:57;102475.78;;;11.72;99.17
1736;BME280;865;53.672;10.250;2023-05-03T12:17:39;102467.69;;;11.15;99.29
1736;BME280;865;53.672;10.250;2023-05-03T12:23:05;102464.16;;;11.09;100.00
1736;BME280;865;53.672;10.250;2023-05-03T12:25:36;102463.22;;;10.96;100.00
1736;BME280;865;53.672;10.250;2023-05-03T12:28:05;102468.53;;;11.10;100.00
1736;BME280;865;53.672;10.250;2023-05-03T12:30:46;102463.31;;;11.14;100.00
1736;BME280;865;53.672;10.250;2023-05-03T12:33:12;102462.34;;;10.95;100.00
1736;BME280;865;53.672;10.250;2023-05-03T12:35:42;102461.59;;;11.21;100.00
1736;BME280;865;53.672;10.250;2023-05-03T12:38:13;102459.19;;;11.64;100.00
1736;BME280;865;53.672;10.250;2023-05-03T12:40:43;102460.09;;;11.77;99.22
1736;BME280;865;53.672;10.250;2023-05-03T12:43:11;102457.47;;;11.74;100.00
1736;BME280;865;53.672;10.250;2023-05-03T12:45:37;102454.09;;;12.16;99.12
1736;BME280;865;53.672;10.250;2023-05-03T12:48:06;102444.53;;;12.32;88.06
1736;BME280;865;53.672;10.250;2023-05-03T12:50:34;102443.63;;;11.95;84.35
1736;BME280;865;53.672;10.250;2023-05-03T12:53:04;102444.41;;;11.80;88.47
1736;BME280;865;53.672;10.250;2023-05-03T12:55:34;102444.50;;;12.06;91.55
1736;BME280;865;53.672;10.250;2023-05-03T12:58:09;102442.78;;;12.32;92.45
1736;BME280;865;53.672;10.250;2023-05-03T13:00:38;102441.91;;;12.55;91.94
1736;BME280;865;53.672;10.250;2023-05-03T13:03:24;102428.81;;;12.80;87.14
1736;BME280;865;53.672;10.250;2023-05-03T13:05:59;102427.88;;;12.99;88.07
1736;BME280;865;53.672;10.250;2023-05-03T13:08:29;102421.72;;;13.15;80.93
1736;BME280;865;53.672;10.250;2023-05-03T13:11:00;102424.41;;;12.97;81.41
1736;BME280;865;53.672;10.250;2023-05-03T13:13:27;102426.13;;;13.01;94.08
1736;BME280;865;53.672;10.250;2023-05-03T13:15:53;102426.22;;;12.73;88.88
1736;BME280;865;53.672;10.250;2023-05-03T13:18:20;102427.91;;;12.84;88.39
1736;BME280;865;53.672;10.250;2023-05-03T13:20:48;102427.06;;;12.25;87.85
1736;BME280;865;53.672;10.250;2023-05-03T13:23:15;102414.88;;;12.56;96.68
1736;BME280;865;53.672;10.250;2023-05-03T13:25:43;102414.88;;;12.51;94.87
1736;BME280;865;53.672;10.250;2023-05-03T13:28:09;102416.63;;;12.42;94.09
1736;BME280;865;53.672;10.250;2023-05-03T13:30:35;102406.16;;;12.43;97.21
1736;BME280;865;53.672;10.250;2023-05-03T13:33:02;102402.66;;;12.44;87.82
1736;BME280;865;53.672;10.250;2023-05-03T13:35:28;102404.41;;;12.44;88.73
1736;BME280;865;53.672;10.250;2023-05-03T13:37:55;102406.16;;;12.34;84.67
1736;BME280;865;53.672;10.250;2023-05-03T13:40:22;102396.56;;;12.25;92.07
1736;BME280;865;53.672;10.250;2023-05-03T13:42:49;102396.56;;;12.50;85.48